createdAt,value
2017-10-13T00:01:55.044Z,14.20
2017-10-13T00:05:06.372Z,13.87
2017-10-13T00:08:16.959Z,13.91
2017-10-13T00:11:28.618Z,13.69
2017-10-13T00:14:40.072Z,13.52
2017-10-13T00:17:52.723Z,13.78
2017-10-13T00:21:03.385Z,13.49
2017-10-13T00:24:15.108Z,13.54
2017-10-13T00:27:25.750Z,13.56
2017-10-13T00:30:36.435Z,13.54
2017-10-13T00:33:49.948Z,13.34
2017-10-13T00:37:00.713Z,13.45
2017-10-13T00:40:11.086Z,13.32
2017-10-13T00:43:22.669Z,13.38
2017-10-13T00:49:16.467Z,13.02
2017-10-13T00:52:27.251Z,13.27
2017-10-13T00:55:37.819Z,13.29
2017-10-13T00:58:48.702Z,12.84
2017-10-13T01:02:00.026Z,13.07
2017-10-13T01:05:10.601Z,12.97
2017-10-13T01:08:23.266Z,12.77
2017-10-13T01:11:34.064Z,12.69
2017-10-13T01:14:44.676Z,12.41
2017-10-13T01:21:12.156Z,12.57
2017-10-13T01:24:22.337Z,12.41
2017-10-13T01:27:32.471Z,12.49
2017-10-13T01:30:42.765Z,12.54
2017-10-13T01:33:53.446Z,12.86
2017-10-13T01:37:04.441Z,12.87
2017-10-13T01:40:15.061Z,13.04
2017-10-13T01:43:28.497Z,12.62
2017-10-13T01:50:10.084Z,12.23
2017-10-13T01:53:15.676Z,12.50
2017-10-13T01:56:21.414Z,13.08
2017-10-13T01:59:28.252Z,13.34
2017-10-13T02:02:34.856Z,13.56
2017-10-13T02:05:42.592Z,13.73
2017-10-13T02:08:50.452Z,13.44
2017-10-13T02:11:56.604Z,13.67
2017-10-13T02:15:04.551Z,13.52
2017-10-13T02:18:10.416Z,13.21
2017-10-13T02:21:16.133Z,13.06
2017-10-13T02:24:25.720Z,12.66
2017-10-13T02:27:33.709Z,13.01
2017-10-13T02:30:40.415Z,13.09
2017-10-13T02:33:49.899Z,13.16
2017-10-13T02:36:56.593Z,13.14
2017-10-13T02:40:02.104Z,13.39
2017-10-13T02:43:07.825Z,13.43
2017-10-13T02:46:14.569Z,13.79
2017-10-13T02:49:20.426Z,13.86
2017-10-13T02:52:26.224Z,13.66
2017-10-13T02:55:32.764Z,13.59
2017-10-13T02:58:38.327Z,13.98
2017-10-13T03:01:44.048Z,14.17
2017-10-13T03:04:50.700Z,14.08
2017-10-13T03:07:57.361Z,14.17
2017-10-13T03:11:03.881Z,14.36
2017-10-13T03:14:09.396Z,14.51
2017-10-13T03:17:18.148Z,14.25
2017-10-13T03:20:24.049Z,14.28
2017-10-13T03:23:30.977Z,14.78
2017-10-13T03:26:36.852Z,14.87
2017-10-13T03:29:42.626Z,14.96
2017-10-13T03:32:48.261Z,15.12
2017-10-13T03:35:55.003Z,14.95
2017-10-13T03:39:01.790Z,14.96
2017-10-13T03:42:08.529Z,15.11
2017-10-13T03:45:14.221Z,15.26
2017-10-13T03:48:19.725Z,15.18
2017-10-13T03:51:25.426Z,15.26
2017-10-13T03:54:31.980Z,15.41
2017-10-13T03:57:38.708Z,15.39
2017-10-13T04:00:45.220Z,15.48
2017-10-13T04:03:51.772Z,15.57
2017-10-13T04:06:59.466Z,15.65
2017-10-13T04:10:06.193Z,15.68
2017-10-13T04:13:11.870Z,15.75
2017-10-13T04:16:17.566Z,15.84
2017-10-13T04:19:24.319Z,15.89
2017-10-13T04:22:29.977Z,15.87
2017-10-13T04:25:35.693Z,15.99
2017-10-13T04:28:41.249Z,15.59
2017-10-13T04:31:46.815Z,15.31
2017-10-13T04:34:52.578Z,15.59
2017-10-13T04:37:58.140Z,15.57
2017-10-13T04:41:03.838Z,15.58
2017-10-13T04:44:09.548Z,15.37
2017-10-13T04:47:16.218Z,15.18
2017-10-13T04:50:22.995Z,15.07
2017-10-13T04:53:28.798Z,14.75
2017-10-13T04:56:34.384Z,15.18
2017-10-13T04:59:40.162Z,15.32
2017-10-13T05:02:46.859Z,15.51
2017-10-13T05:05:52.888Z,15.54
2017-10-13T05:08:58.642Z,15.78
2017-10-13T05:12:05.481Z,16.04
2017-10-13T05:15:11.269Z,16.13
2017-10-13T05:18:18.086Z,16.25
2017-10-13T05:21:24.056Z,16.26
2017-10-13T05:24:29.867Z,16.27
2017-10-13T05:27:36.554Z,16.28
2017-10-13T05:30:43.421Z,16.33
2017-10-13T05:33:49.168Z,16.33
2017-10-13T05:36:54.704Z,16.18
2017-10-13T05:40:02.434Z,16.25
2017-10-13T05:43:09.376Z,16.32
2017-10-13T05:46:16.059Z,16.48
2017-10-13T05:49:21.827Z,16.19
2017-10-13T05:52:28.483Z,16.16
2017-10-13T05:55:34.303Z,16.40
2017-10-13T05:58:39.776Z,16.42
2017-10-13T06:01:45.538Z,16.59
2017-10-13T06:04:51.231Z,16.09
2017-10-13T06:07:58.852Z,16.39
2017-10-13T06:11:05.579Z,16.08
2017-10-13T06:14:11.437Z,15.68
2017-10-13T06:17:24.344Z,16.15
2017-10-13T06:20:29.949Z,16.50
2017-10-13T06:23:36.613Z,16.56
2017-10-13T06:26:42.132Z,16.81
2017-10-13T06:29:47.698Z,16.91
2017-10-13T06:32:54.369Z,16.98
2017-10-13T06:36:01.038Z,16.64
2017-10-13T06:39:07.581Z,16.55
2017-10-13T06:42:14.417Z,16.63
2017-10-13T06:45:21.932Z,16.81
2017-10-13T06:48:27.626Z,16.65
2017-10-13T06:51:34.475Z,15.96
2017-10-13T06:54:43.306Z,16.28
2017-10-13T06:57:48.649Z,16.65
2017-10-13T07:00:54.569Z,16.48
2017-10-13T07:04:01.252Z,16.52
2017-10-13T07:10:26.594Z,16.57
2017-10-13T07:13:33.247Z,16.75
2017-10-13T07:16:39.896Z,17.50
2017-10-13T07:19:47.702Z,17.37
2017-10-13T07:22:54.337Z,17.20
2017-10-13T07:29:00.125Z,16.90
2017-10-13T07:32:07.896Z,16.55
2017-10-13T07:35:19.482Z,17.07
2017-10-13T07:38:25.463Z,17.36
2017-10-13T07:41:31.341Z,16.78
2017-10-13T07:44:38.821Z,17.27
2017-10-13T07:47:44.924Z,17.16
2017-10-13T07:50:50.708Z,17.21
2017-10-13T07:53:56.660Z,16.97
2017-10-13T07:57:03.419Z,16.93
2017-10-13T08:00:10.078Z,17.28
2017-10-13T08:03:23.474Z,16.87
2017-10-13T08:06:32.173Z,17.03
2017-10-13T08:09:39.566Z,16.64
2017-10-13T08:12:46.238Z,16.66
2017-10-13T08:15:51.941Z,17.37
2017-10-13T08:18:58.674Z,16.90
2017-10-13T08:22:06.286Z,16.76
2017-10-13T08:25:12.106Z,16.76
2017-10-13T08:28:18.810Z,16.60
2017-10-13T08:31:24.618Z,16.45
2017-10-13T08:34:36.349Z,16.46
2017-10-13T08:37:43.345Z,16.76
2017-10-13T08:40:48.713Z,17.02
2017-10-13T08:43:55.505Z,17.19
2017-10-13T08:47:03.437Z,16.99
2017-10-13T08:50:10.178Z,16.83
2017-10-13T08:53:20.117Z,17.49
2017-10-13T08:56:25.294Z,17.81
2017-10-13T08:59:31.004Z,17.19
2017-10-13T09:02:39.857Z,17.16
2017-10-13T09:05:45.543Z,17.06
2017-10-13T09:08:52.177Z,16.83
2017-10-13T09:11:58.898Z,16.97
2017-10-13T09:15:04.590Z,17.33
2017-10-13T09:18:19.530Z,17.51
2017-10-13T09:21:35.492Z,17.90
2017-10-13T09:24:43.204Z,18.64
2017-10-13T09:27:49.964Z,18.18
2017-10-13T09:30:57.725Z,18.52
2017-10-13T09:34:03.550Z,17.88
2017-10-13T09:37:11.578Z,17.77
2017-10-13T09:40:17.330Z,18.13
2017-10-13T09:43:22.969Z,18.57
2017-10-13T09:50:39.268Z,18.72
2017-10-13T13:04:22.291Z,18.76
2017-10-13T13:07:29.993Z,18.54
2017-10-13T13:10:37.528Z,18.40
2017-10-13T13:13:44.258Z,18.38
2017-10-13T13:16:50.073Z,18.36
2017-10-13T13:19:57.046Z,18.38
2017-10-13T13:23:03.719Z,18.65
2017-10-13T13:26:09.525Z,18.09
2017-10-13T13:29:16.272Z,18.44
2017-10-13T13:32:22.098Z,18.59
2017-10-13T13:35:28.772Z,18.61
2017-10-13T13:38:35.640Z,19.12
2017-10-13T13:41:44.313Z,18.83
2017-10-13T13:44:50.269Z,18.60
2017-10-13T13:50:46.731Z,18.90
2017-10-13T13:53:55.645Z,18.49
2017-10-13T13:57:01.202Z,18.47
2017-10-13T14:00:08.961Z,19.13
2017-10-13T14:03:22.643Z,18.70
2017-10-13T14:06:31.389Z,18.65
2017-10-13T14:09:37.118Z,19.14
2017-10-13T14:12:42.730Z,19.57
2017-10-13T14:26:34.489Z,19.62
2017-10-13T14:29:40.231Z,19.98
2017-10-13T14:32:46.697Z,19.52
2017-10-13T14:35:52.318Z,19.35
2017-10-13T14:45:02.017Z,20.00
2017-10-13T14:48:07.825Z,19.93
2017-10-13T14:51:25.464Z,19.66
2017-10-13T14:54:31.096Z,20.19
2017-10-13T14:57:36.791Z,20.18
2017-10-13T15:00:42.587Z,19.95
2017-10-13T15:03:48.284Z,20.07
2017-10-13T15:06:54.925Z,19.82
2017-10-13T15:10:00.436Z,20.10
2017-10-13T15:13:06.850Z,19.70
2017-10-13T15:16:12.861Z,19.06
2017-10-13T15:19:18.540Z,19.35
2017-10-13T15:22:26.963Z,18.77
2017-10-13T15:25:37.880Z,18.91
2017-10-13T15:28:49.248Z,19.31
2017-10-13T15:31:58.479Z,19.23
2017-10-13T15:37:10.975Z,19.46
2017-10-13T15:42:23.656Z,19.64
2017-10-13T15:45:33.430Z,19.66
2017-10-13T15:48:39.465Z,19.80
2017-10-13T15:51:51.198Z,19.61
2017-10-13T15:54:59.258Z,20.08
2017-10-13T15:58:07.805Z,20.21
2017-10-13T16:01:18.822Z,20.10
2017-10-13T16:04:28.228Z,20.14
2017-10-13T16:07:33.968Z,20.05
2017-10-13T16:10:39.730Z,20.08
2017-10-13T16:13:47.477Z,20.01
2017-10-13T16:16:54.191Z,19.94
2017-10-13T16:19:59.696Z,19.92
2017-10-13T16:23:05.599Z,19.87
2017-10-13T16:26:12.568Z,19.92
2017-10-13T16:29:20.217Z,19.85
2017-10-13T16:32:26.020Z,19.88
2017-10-13T16:35:33.989Z,20.05
2017-10-13T16:38:39.485Z,20.15
2017-10-13T16:41:45.315Z,20.06
2017-10-13T16:44:52.159Z,19.98
2017-10-13T16:47:58.525Z,19.87
2017-10-13T16:51:04.205Z,19.41
2017-10-13T16:54:11.185Z,19.17
2017-10-13T16:57:19.078Z,18.96
2017-10-13T17:00:25.561Z,18.95
2017-10-13T17:03:31.969Z,18.95
2017-10-13T17:06:37.994Z,18.87
2017-10-13T17:09:44.788Z,18.68
2017-10-13T17:12:51.670Z,18.64
2017-10-13T17:15:58.152Z,18.50
2017-10-13T17:19:04.888Z,18.31
2017-10-13T17:22:10.561Z,18.11
2017-10-13T17:25:17.136Z,18.06
2017-10-13T17:28:23.958Z,18.12
2017-10-13T17:31:29.633Z,18.04
2017-10-13T17:34:36.680Z,18.03
2017-10-13T17:37:44.537Z,18.12
2017-10-13T17:45:55.731Z,18.16
2017-10-13T17:49:01.477Z,18.04
2017-10-13T17:52:09.344Z,17.96
2017-10-13T17:55:15.553Z,18.00
2017-10-13T17:58:24.100Z,17.98
2017-10-13T18:01:30.959Z,17.92
2017-10-13T18:04:37.773Z,17.88
2017-10-13T18:07:45.489Z,17.57
2017-10-13T18:10:53.198Z,17.60
2017-10-13T18:14:00.036Z,17.67
2017-10-13T18:17:06.540Z,17.52
2017-10-13T18:20:12.608Z,17.53
2017-10-13T18:23:19.972Z,17.22
2017-10-13T18:26:27.419Z,17.43
2017-10-13T18:29:35.376Z,17.58
2017-10-13T18:32:42.105Z,17.68
2017-10-13T18:35:48.707Z,17.70
2017-10-13T18:38:54.224Z,17.77
2017-10-13T18:42:04.687Z,17.77
2017-10-13T18:45:11.686Z,17.88
2017-10-13T18:48:25.013Z,17.76
2017-10-13T19:26:35.952Z,18.63
